createdAt,value
2023-01-07T00:00:39.202Z,29.00
2023-01-07T00:03:11.322Z,26.50
2023-01-07T00:05:47.765Z,27.73
2023-01-07T00:08:28.419Z,27.98
2023-01-07T00:11:13.257Z,26.13
2023-01-07T00:14:09.575Z,27.50
2023-01-07T00:16:44.912Z,25.80
2023-01-07T00:19:35.847Z,25.58
2023-01-07T00:22:08.574Z,26.95
2023-01-07T00:24:49.815Z,28.63
2023-01-07T00:27:32.738Z,29.70
2023-01-07T00:30:22.513Z,29.33
2023-01-07T00:33:12.321Z,26.40
2023-01-07T00:36:01.186Z,28.35
2023-01-07T00:38:37.870Z,28.30
2023-01-07T00:41:13.751Z,31.77
2023-01-07T00:43:55.730Z,28.48
2023-01-07T00:46:39.155Z,32.72
2023-01-07T00:49:20.121Z,32.22
2023-01-07T00:52:00.300Z,33.47
2023-01-07T00:54:41.727Z,32.08
2023-01-07T00:57:22.560Z,29.88
2023-01-07T01:00:09.850Z,32.63
2023-01-07T01:02:51.088Z,30.27
2023-01-07T01:05:27.071Z,30.55
2023-01-07T01:08:09.422Z,32.25
2023-01-07T01:10:53.522Z,24.05
2023-01-07T01:13:41.395Z,32.30
2023-01-07T01:16:26.071Z,33.17
2023-01-07T01:19:12.225Z,28.75
2023-01-07T01:22:00.774Z,30.50
2023-01-07T01:24:41.386Z,29.92
2023-01-07T01:27:20.011Z,30.05
2023-01-07T01:29:59.162Z,28.70
2023-01-07T01:32:48.789Z,28.15
2023-01-07T01:35:29.654Z,27.70
2023-01-07T01:38:21.633Z,28.58
2023-01-07T01:40:59.810Z,28.63
2023-01-07T01:43:48.013Z,26.20
2023-01-07T01:46:39.563Z,27.10
2023-01-07T01:50:03.109Z,28.27
2023-01-07T01:52:57.190Z,27.50
2023-01-07T01:56:10.800Z,26.48
2023-01-07T01:58:59.262Z,28.83
2023-01-07T02:01:35.549Z,29.20
2023-01-07T02:04:20.160Z,33.90
2023-01-07T02:07:13.294Z,31.75
2023-01-07T02:10:26.853Z,31.42
2023-01-07T02:13:33.570Z,28.10
2023-01-07T02:16:35.961Z,28.75
2023-01-07T02:19:35.313Z,27.33
2023-01-07T02:22:39.728Z,28.35
2023-01-07T02:25:42.208Z,28.42
2023-01-07T02:28:30.324Z,28.48
2023-01-07T02:31:19.843Z,31.75
2023-01-07T02:34:35.994Z,29.25
2023-01-07T02:37:37.609Z,26.65
2023-01-07T02:40:22.809Z,27.05
2023-01-07T02:43:28.448Z,29.77
2023-01-07T02:46:35.672Z,32.50
2023-01-07T02:49:19.370Z,36.17
2023-01-07T02:51:58.760Z,35.90
2023-01-07T02:54:39.981Z,33.08
2023-01-07T03:00:26.895Z,34.22
2023-01-07T03:03:26.499Z,37.85
2023-01-07T03:06:29.433Z,36.15
2023-01-07T03:09:17.857Z,35.20
2023-01-07T03:12:03.853Z,34.47
2023-01-07T03:14:52.603Z,32.00
2023-01-07T03:17:49.536Z,32.40
2023-01-07T03:20:34.990Z,32.10
2023-01-07T03:23:12.818Z,36.30
2023-01-07T03:25:50.719Z,37.28
2023-01-07T03:28:35.276Z,37.28
2023-01-07T03:31:23.913Z,33.40
2023-01-07T03:34:06.413Z,28.60
2023-01-07T03:37:03.218Z,28.77
2023-01-07T03:39:41.173Z,29.80
2023-01-07T03:42:39.984Z,30.92
2023-01-07T03:45:23.039Z,31.27
2023-01-07T03:48:09.807Z,28.48
2023-01-07T03:50:46.206Z,31.20
2023-01-07T03:53:19.221Z,27.83
2023-01-07T03:55:52.777Z,27.17
2023-01-07T03:58:33.235Z,27.38
2023-01-07T04:01:11.864Z,25.73
2023-01-07T04:03:52.977Z,27.17
2023-01-07T04:06:29.743Z,25.00
2023-01-07T04:09:21.689Z,24.70
2023-01-07T04:12:06.696Z,24.13
2023-01-07T04:14:59.494Z,23.35
2023-01-07T04:17:38.637Z,24.02
2023-01-07T04:20:22.640Z,27.30
2023-01-07T04:22:57.460Z,28.80
2023-01-07T04:25:39.377Z,34.40
2023-01-07T04:28:26.359Z,38.13
2023-01-07T04:31:07.397Z,34.75
2023-01-07T04:33:42.884Z,32.28
2023-01-07T04:36:18.282Z,30.33
2023-01-07T04:39:02.682Z,29.15
2023-01-07T04:41:43.650Z,30.17
2023-01-07T04:44:18.225Z,33.00
2023-01-07T04:46:55.341Z,27.50
2023-01-07T04:49:33.752Z,27.63
2023-01-07T04:52:09.803Z,27.17
2023-01-07T04:54:57.695Z,28.58
2023-01-07T04:57:33.446Z,28.20
2023-01-07T05:00:10.291Z,28.83
2023-01-07T05:02:49.229Z,29.02
2023-01-07T05:05:37.249Z,31.08
2023-01-07T05:08:17.777Z,32.83
2023-01-07T05:10:59.988Z,33.60
2023-01-07T05:13:35.472Z,33.72
2023-01-07T05:16:12.510Z,34.03
2023-01-07T05:19:07.189Z,31.67
2023-01-07T05:21:52.612Z,33.30
2023-01-07T05:24:34.186Z,30.10
2023-01-07T05:27:19.515Z,29.52
2023-01-07T05:29:54.520Z,32.67
2023-01-07T05:32:41.316Z,32.85
2023-01-07T05:35:22.830Z,28.83
2023-01-07T05:38:04.255Z,26.67
2023-01-07T05:40:43.799Z,28.85
2023-01-07T05:43:25.240Z,32.33
2023-01-07T05:46:06.071Z,32.47
2023-01-07T05:48:47.653Z,35.55
2023-01-07T05:51:17.767Z,36.03
2023-01-07T05:54:01.957Z,35.30
2023-01-07T05:56:42.723Z,37.10
2023-01-07T05:59:23.026Z,27.50
2023-01-07T06:02:08.269Z,35.58
2023-01-07T06:04:45.151Z,34.20
2023-01-07T06:07:25.815Z,41.13
2023-01-07T06:10:12.037Z,38.17
2023-01-07T06:12:45.958Z,42.42
2023-01-07T06:15:44.714Z,38.28
2023-01-07T06:18:25.478Z,39.83
2023-01-07T06:21:09.720Z,44.78
2023-01-07T06:23:45.041Z,38.58
2023-01-07T06:26:25.503Z,42.33
2023-01-07T06:28:58.648Z,43.42
2023-01-07T06:31:31.366Z,42.83
2023-01-07T06:34:11.634Z,42.88
2023-01-07T06:36:48.788Z,45.83
2023-01-07T06:39:29.425Z,46.55
2023-01-07T06:42:10.128Z,41.00
2023-01-07T06:44:54.086Z,42.85
2023-01-07T06:47:34.386Z,41.55
2023-01-07T06:50:10.807Z,45.22
2023-01-07T06:52:49.015Z,42.88
2023-01-07T06:55:32.462Z,47.50
2023-01-07T06:58:10.901Z,64.65
2023-01-07T07:00:42.957Z,56.80
2023-01-07T07:03:45.736Z,54.47
2023-01-07T07:06:28.483Z,53.97
2023-01-07T07:09:05.587Z,56.78
2023-01-07T07:11:41.727Z,56.45
2023-01-07T07:14:19.304Z,55.13
2023-01-07T07:17:02.443Z,59.35
2023-01-07T07:19:40.507Z,56.53
2023-01-07T07:22:22.593Z,58.70
2023-01-07T07:25:03.282Z,55.80
2023-01-07T07:27:42.567Z,62.97
2023-01-07T07:30:45.561Z,70.88
2023-01-07T07:33:27.714Z,66.22
2023-01-07T07:36:05.694Z,68.25
2023-01-07T07:38:47.477Z,71.53
2023-01-07T07:41:33.453Z,68.55
2023-01-07T07:44:14.663Z,65.35
2023-01-07T07:46:55.975Z,67.30
2023-01-07T07:49:34.260Z,71.70
2023-01-07T07:52:15.017Z,70.78
2023-01-07T07:55:20.757Z,67.82
2023-01-07T07:58:10.392Z,66.38
2023-01-07T08:00:56.030Z,63.28
2023-01-07T08:03:39.781Z,64.40
2023-01-07T08:06:18.251Z,64.30
2023-01-07T08:08:59.974Z,68.22
2023-01-07T08:11:35.152Z,65.32
2023-01-07T08:14:16.395Z,70.40
2023-01-07T08:17:03.418Z,70.55
2023-01-07T08:19:38.511Z,73.68
2023-01-07T08:22:23.275Z,66.32
2023-01-07T08:25:01.441Z,74.07
2023-01-07T08:27:39.983Z,71.25
2023-01-07T08:30:21.626Z,63.20
2023-01-07T08:33:00.413Z,69.03
2023-01-07T08:35:41.020Z,66.38
2023-01-07T08:38:18.418Z,59.72
2023-01-07T08:40:57.694Z,59.80
2023-01-07T08:43:42.052Z,61.15
2023-01-07T08:46:27.848Z,55.63
2023-01-07T08:49:06.039Z,53.67
2023-01-07T08:51:46.874Z,50.70
2023-01-07T08:54:19.043Z,52.17
2023-01-07T08:57:02.720Z,54.20
2023-01-07T08:59:47.398Z,57.08
2023-01-07T09:02:32.003Z,54.45
2023-01-07T09:05:08.341Z,55.53
2023-01-07T09:07:56.847Z,55.60
2023-01-07T09:10:30.783Z,53.28
2023-01-07T09:13:11.119Z,49.47
2023-01-07T09:15:48.753Z,52.13
2023-01-07T09:18:29.137Z,47.97
2023-01-07T09:21:03.605Z,48.17
2023-01-07T09:23:36.847Z,43.47
2023-01-07T09:26:25.355Z,45.92
2023-01-07T09:29:08.751Z,40.60
2023-01-07T09:31:58.195Z,36.67
2023-01-07T09:37:28.692Z,32.90
2023-01-07T09:40:07.675Z,35.90
2023-01-07T09:43:13.785Z,34.15
2023-01-07T09:46:08.880Z,33.60
2023-01-07T09:48:50.667Z,34.97
2023-01-07T09:51:40.851Z,33.88
2023-01-07T09:54:33.217Z,34.30
2023-01-07T09:57:09.452Z,33.78
2023-01-07T10:00:03.656Z,28.73
2023-01-07T10:02:44.378Z,24.38
2023-01-07T10:05:47.942Z,24.02
2023-01-07T10:09:01.239Z,22.50
2023-01-07T10:12:00.621Z,21.85
2023-01-07T10:14:51.650Z,21.70
2023-01-07T10:17:37.285Z,19.00
2023-01-07T10:20:37.643Z,20.88
2023-01-07T10:23:36.421Z,19.88
2023-01-07T10:26:32.804Z,18.77
2023-01-07T10:29:42.999Z,19.08
2023-01-07T10:32:30.918Z,16.85
2023-01-07T10:35:11.551Z,19.23
2023-01-07T10:37:48.015Z,18.65
2023-01-07T10:40:45.515Z,17.25
2023-01-07T10:44:00.089Z,15.80
2023-01-07T10:47:14.926Z,15.45
2023-01-07T10:50:30.753Z,16.23
2023-01-07T10:53:25.439Z,16.92
2023-01-07T10:56:09.791Z,17.27
2023-01-07T10:58:57.931Z,15.48
2023-01-07T11:01:45.543Z,14.52
2023-01-07T11:04:24.642Z,14.15
2023-01-07T11:07:35.163Z,15.23
2023-01-07T11:10:20.502Z,13.80
2023-01-07T11:13:16.253Z,14.65
2023-01-07T11:16:14.029Z,13.37
2023-01-07T11:19:16.601Z,12.38
2023-01-07T11:21:51.790Z,12.90
2023-01-07T11:24:36.230Z,12.65
2023-01-07T11:27:33.704Z,12.57
2023-01-07T11:30:33.914Z,12.32
2023-01-07T11:34:02.305Z,13.55
2023-01-07T11:36:55.794Z,13.50
2023-01-07T11:39:32.898Z,11.30
2023-01-07T11:42:40.548Z,11.48
2023-01-07T11:45:30.023Z,10.82
2023-01-07T11:48:24.536Z,10.95
2023-01-07T11:51:05.967Z,11.23
2023-01-07T11:53:56.748Z,10.00
2023-01-07T11:56:35.920Z,10.50
2023-01-07T11:59:26.008Z,10.32
2023-01-07T12:02:07.250Z,9.20
2023-01-07T12:04:53.348Z,8.48
2023-01-07T12:07:30.911Z,8.90
2023-01-07T12:10:06.232Z,9.95
2023-01-07T12:12:48.239Z,8.73
2023-01-07T12:15:37.602Z,10.45
2023-01-07T12:18:49.472Z,11.38
2023-01-07T12:21:58.199Z,11.98
2023-01-07T12:24:59.580Z,12.73
2023-01-07T12:27:56.772Z,13.50
2023-01-07T12:31:30.628Z,13.02
2023-01-07T12:34:30.005Z,13.93
2023-01-07T12:40:07.306Z,16.15
2023-01-07T12:42:52.242Z,16.67
2023-01-07T12:46:00.399Z,17.90
2023-01-07T12:48:59.174Z,19.00
2023-01-07T12:52:01.252Z,21.27
2023-01-07T12:54:53.258Z,18.63
2023-01-07T12:57:45.771Z,21.17
2023-01-07T13:00:34.646Z,19.25
2023-01-07T13:03:47.323Z,21.40
2023-01-07T13:06:55.483Z,21.23
2023-01-07T13:09:45.970Z,20.98
2023-01-07T13:12:45.594Z,22.10
2023-01-07T13:15:37.766Z,20.33
2023-01-07T13:18:27.607Z,21.85
2023-01-07T13:21:17.698Z,20.05
2023-01-07T13:24:54.835Z,21.02
2023-01-07T13:27:43.639Z,18.42
2023-01-07T13:30:42.025Z,16.88
2023-01-07T13:33:42.320Z,17.52
2023-01-07T13:36:37.227Z,18.80
2023-01-07T13:39:58.829Z,17.73
2023-01-07T13:43:05.087Z,17.50
2023-01-07T13:45:49.159Z,19.83
2023-01-07T13:48:34.778Z,20.05
2023-01-07T13:51:17.911Z,19.90
2023-01-07T13:54:15.637Z,21.45
2023-01-07T13:57:02.086Z,21.38
2023-01-07T14:00:02.644Z,18.60
2023-01-07T14:03:02.201Z,19.05
2023-01-07T14:05:37.687Z,19.27
2023-01-07T14:08:21.662Z,20.58
2023-01-07T14:11:01.543Z,21.02
2023-01-07T14:14:29.145Z,22.88
2023-01-07T14:17:42.994Z,20.65
2023-01-07T14:20:33.536Z,20.92
2023-01-07T14:23:44.508Z,20.38
2023-01-07T14:26:42.639Z,22.20
2023-01-07T14:29:45.544Z,23.63
2023-01-07T14:32:34.434Z,25.70
2023-01-07T14:35:40.598Z,26.35
2023-01-07T14:38:36.756Z,26.58
2023-01-07T14:41:19.379Z,30.77
2023-01-07T14:44:12.736Z,29.08
2023-01-07T14:46:50.094Z,28.43
2023-01-07T14:50:18.359Z,32.63
2023-01-07T14:52:57.634Z,30.75
2023-01-07T14:55:41.536Z,31.17
2023-01-07T14:58:32.396Z,34.40
2023-01-07T15:01:47.030Z,33.05
2023-01-07T15:05:13.093Z,33.63
2023-01-07T15:08:19.962Z,35.03
2023-01-07T15:11:35.348Z,35.00
2023-01-07T15:15:00.811Z,36.72
2023-01-07T15:17:48.139Z,44.22
2023-01-07T15:20:39.445Z,46.05
2023-01-07T15:23:31.415Z,46.00
2023-01-07T15:26:33.723Z,46.00
2023-01-07T15:29:33.680Z,46.25
2023-01-07T15:32:34.762Z,45.95
2023-01-07T15:35:30.915Z,48.40
2023-01-07T15:38:44.231Z,47.67
2023-01-07T15:41:39.093Z,51.15
2023-01-07T15:44:31.229Z,50.53
2023-01-07T15:47:35.713Z,51.08
2023-01-07T15:50:33.862Z,49.28
2023-01-07T15:53:18.641Z,54.72
2023-01-07T15:56:18.393Z,59.17
2023-01-07T15:59:02.005Z,57.08
2023-01-07T16:01:47.897Z,72.70
2023-01-07T16:04:36.117Z,61.55
2023-01-07T16:07:29.676Z,76.60
2023-01-07T16:10:09.346Z,65.10
2023-01-07T16:13:01.124Z,65.07
2023-01-07T16:15:59.396Z,67.30
2023-01-07T16:18:39.789Z,67.35
2023-01-07T16:21:19.419Z,68.57
2023-01-07T16:23:58.029Z,66.13
2023-01-07T16:26:40.695Z,64.30
2023-01-07T16:29:29.896Z,62.90
2023-01-07T16:32:05.611Z,61.58
2023-01-07T16:34:54.594Z,59.92
2023-01-07T16:37:37.665Z,60.17
2023-01-07T16:40:37.988Z,65.32
2023-01-07T16:43:46.979Z,57.65
2023-01-07T16:46:42.916Z,56.53
2023-01-07T16:49:26.739Z,59.13
2023-01-07T16:52:14.230Z,62.33
2023-01-07T16:54:57.318Z,65.13
2023-01-07T16:57:48.117Z,61.60
2023-01-07T17:00:34.910Z,62.40
2023-01-07T17:03:18.103Z,66.93
2023-01-07T17:06:16.999Z,65.93
2023-01-07T17:08:56.745Z,64.20
2023-01-07T17:11:39.686Z,68.63
2023-01-07T17:14:39.881Z,46.60
2023-01-07T17:17:36.671Z,62.90
2023-01-07T17:20:35.704Z,59.85
2023-01-07T17:23:33.135Z,61.40
2023-01-07T17:26:25.961Z,69.32
2023-01-07T17:29:12.984Z,68.78
2023-01-07T17:31:53.524Z,64.88
2023-01-07T17:34:38.915Z,67.60
2023-01-07T17:37:21.567Z,64.65
2023-01-07T17:40:08.666Z,45.78
2023-01-07T17:43:06.219Z,60.85
2023-01-07T17:45:49.683Z,58.88
2023-01-07T17:48:29.014Z,60.15
2023-01-07T17:51:07.354Z,65.32
2023-01-07T17:53:52.832Z,61.20
2023-01-07T17:56:34.024Z,47.38
2023-01-07T17:59:09.873Z,60.88
2023-01-07T18:01:51.385Z,62.65
2023-01-07T18:04:36.774Z,64.22
2023-01-07T18:07:22.204Z,58.50
2023-01-07T18:10:01.522Z,56.30
2023-01-07T18:12:49.862Z,61.40
2023-01-07T18:15:36.346Z,56.47
2023-01-07T18:18:14.106Z,57.58
2023-01-07T18:21:00.291Z,59.95
2023-01-07T18:23:49.200Z,59.65
2023-01-07T18:26:25.975Z,55.17
2023-01-07T18:29:07.619Z,58.75
2023-01-07T18:31:51.791Z,62.00
2023-01-07T18:34:37.347Z,59.47
2023-01-07T18:37:18.628Z,62.80
2023-01-07T18:40:07.963Z,65.72
2023-01-07T18:42:49.906Z,61.55
2023-01-07T18:45:24.327Z,64.85
2023-01-07T18:48:05.110Z,63.95
2023-01-07T18:50:49.363Z,61.05
2023-01-07T18:53:31.669Z,61.47
2023-01-07T18:56:12.669Z,63.50
2023-01-07T18:58:55.242Z,63.70
2023-01-07T19:01:39.030Z,63.92
2023-01-07T19:04:28.258Z,64.38
2023-01-07T19:07:08.919Z,63.92
2023-01-07T19:09:49.440Z,58.83
2023-01-07T19:12:36.245Z,62.63
2023-01-07T19:15:20.801Z,62.33
2023-01-07T19:18:04.986Z,56.35
2023-01-07T19:20:56.675Z,59.65
2023-01-07T19:23:43.016Z,59.65
2023-01-07T19:26:20.908Z,61.00
2023-01-07T19:29:01.321Z,59.10
2023-01-07T19:31:46.592Z,62.45
2023-01-07T19:34:28.712Z,56.45
2023-01-07T19:37:01.612Z,60.95
2023-01-07T19:39:42.516Z,59.90
2023-01-07T19:42:28.107Z,59.70
2023-01-07T19:45:09.970Z,55.65
2023-01-07T19:47:50.717Z,62.33
2023-01-07T19:50:26.717Z,59.25
2023-01-07T19:53:06.319Z,63.03
2023-01-07T19:55:52.844Z,59.03
2023-01-07T19:58:34.398Z,58.00
2023-01-07T20:01:16.880Z,54.88
2023-01-07T20:03:59.321Z,55.30
2023-01-07T20:06:48.076Z,56.08
2023-01-07T20:09:35.510Z,58.97
2023-01-07T20:12:08.215Z,61.03
2023-01-07T20:15:04.437Z,57.90
2023-01-07T20:17:43.265Z,57.97
2023-01-07T20:20:15.768Z,58.92
2023-01-07T20:22:55.661Z,57.83
2023-01-07T20:25:40.712Z,58.15
2023-01-07T20:28:18.514Z,56.55
2023-01-07T20:30:50.037Z,58.67
2023-01-07T20:33:37.095Z,57.10
2023-01-07T20:36:19.164Z,56.10
2023-01-07T20:39:03.283Z,57.20
2023-01-07T20:41:43.607Z,57.00
2023-01-07T20:44:29.001Z,59.60
2023-01-07T20:47:08.193Z,60.97
2023-01-07T20:49:40.655Z,55.08
2023-01-07T20:52:31.230Z,57.90
2023-01-07T20:55:07.576Z,54.50
2023-01-07T20:57:41.047Z,58.38
2023-01-07T21:00:22.292Z,56.75
2023-01-07T21:02:55.224Z,51.00
2023-01-07T21:05:32.893Z,40.25
2023-01-07T21:08:12.995Z,53.58
2023-01-07T21:10:56.390Z,53.40
2023-01-07T21:13:32.775Z,57.15
2023-01-07T21:16:14.489Z,54.70
2023-01-07T21:18:44.363Z,55.42
2023-01-07T21:21:26.669Z,55.10
2023-01-07T21:24:17.284Z,53.28
2023-01-07T21:27:07.695Z,51.95
2023-01-07T21:29:45.674Z,51.40
2023-01-07T21:32:26.414Z,58.50
2023-01-07T21:35:01.980Z,56.75
2023-01-07T21:37:39.628Z,56.78
2023-01-07T21:40:14.929Z,55.15
2023-01-07T21:42:55.709Z,57.25
2023-01-07T21:45:40.975Z,56.38
2023-01-07T21:48:33.667Z,55.42
2023-01-07T21:51:16.438Z,57.25
2023-01-07T21:54:00.216Z,56.85
2023-01-07T21:56:36.592Z,52.08
2023-01-07T21:59:17.101Z,59.13
2023-01-07T22:01:55.532Z,54.17
2023-01-07T22:04:40.820Z,57.47
2023-01-07T22:07:25.995Z,55.00
2023-01-07T22:10:09.899Z,54.60
2023-01-07T22:15:34.163Z,52.47
2023-01-07T22:18:15.592Z,55.17
2023-01-07T22:23:46.629Z,57.22
2023-01-07T22:26:28.459Z,58.33
2023-01-07T22:29:18.658Z,64.00
2023-01-07T22:31:56.065Z,54.28
2023-01-07T22:34:42.011Z,59.42
2023-01-07T22:37:26.755Z,60.63
2023-01-07T22:40:21.566Z,57.13
2023-01-07T22:43:01.166Z,55.63
2023-01-07T22:45:43.222Z,58.30
2023-01-07T22:48:31.661Z,60.70
2023-01-07T22:51:17.319Z,56.90
2023-01-07T22:53:59.540Z,60.90
2023-01-07T22:56:35.331Z,56.88
2023-01-07T22:59:08.067Z,60.65
2023-01-07T23:01:47.612Z,55.38
2023-01-07T23:04:32.056Z,59.10
2023-01-07T23:07:10.732Z,58.85
2023-01-07T23:09:51.637Z,59.67
2023-01-07T23:12:32.334Z,63.40
2023-01-07T23:15:12.961Z,59.35
2023-01-07T23:18:00.317Z,62.58
2023-01-07T23:20:47.503Z,59.88
2023-01-07T23:23:28.155Z,61.42
2023-01-07T23:26:09.639Z,44.08
2023-01-07T23:28:44.951Z,63.58
2023-01-07T23:31:22.142Z,68.10
2023-01-07T23:34:03.443Z,63.47
2023-01-07T23:36:46.624Z,63.00
2023-01-07T23:39:29.842Z,59.42
2023-01-07T23:42:10.405Z,63.10
2023-01-07T23:44:53.986Z,63.78
2023-01-07T23:47:32.158Z,66.07
2023-01-07T23:50:12.962Z,64.80
2023-01-07T23:52:53.151Z,58.97
2023-01-07T23:55:47.934Z,59.88
2023-01-07T23:58:24.628Z,61.55
